Time;durP1;ratioP1;P1;durP2;ratioP2;P2;SDS_P1;SDS_P2;PMS_P1;PMS_P2;Temp;Humidity;BMP_temperature;BMP_pressure;BME280_temperature;BME280_humidity;BME280_pressure;Samples;Min_cycle;Max_cycle;Signal;HPM_P1;HPM_P2
2022/01/14 00:01:08;;;;;;;41.63;22.53;;;2.00;99.90;;;;;;5074048;28;20603;-63
2022/01/14 00:03:33;;;;;;;41.17;22.10;;;2.00;99.90;;;;;;5073673;28;20171;-63
2022/01/14 00:05:59;;;;;;;45.67;23.37;;;2.00;99.90;;;;;;5073513;28;20673;-64
2022/01/14 00:08:25;;;;;;;45.00;21.80;;;2.00;99.90;;;;;;5073665;28;20227;-67
2022/01/14 00:10:51;;;;;;;47.97;22.13;;;2.00;99.90;;;;;;5073872;28;20174;-66
2022/01/14 00:16:12;;;;;;;41.10;22.03;;;2.10;99.90;;;;;;5053749;28;20213;-66
2022/01/14 00:18:38;;;;;;;43.57;23.33;;;2.10;99.90;;;;;;5073709;28;20154;-66
2022/01/14 00:21:04;;;;;;;43.83;22.17;;;2.20;99.90;;;;;;5073508;28;20173;-66
2022/01/14 00:23:34;;;;;;;40.77;22.10;;;2.10;99.90;;;;;;5073606;28;20173;-66
2022/01/14 00:34:06;;;;;;;42.30;23.77;;;2.20;99.90;;;;;;5077722;28;20196;-66
2022/01/14 00:36:32;;;;;;;41.30;20.87;;;2.20;99.90;;;;;;5076225;28;20233;-66
2022/01/14 00:38:58;;;;;;;42.27;21.47;;;2.30;99.90;;;;;;5077613;28;20627;-66
2022/01/14 00:41:24;;;;;;;40.63;21.43;;;2.20;99.90;;;;;;5077249;28;20211;-66
2022/01/14 00:43:55;;;;;;;44.77;22.77;;;2.30;99.90;;;;;;5077518;28;20177;-65
2022/01/14 00:46:21;;;;;;;44.50;21.43;;;2.30;99.90;;;;;;5077316;28;20245;-66
2022/01/14 00:48:47;;;;;;;45.43;21.80;;;2.30;99.90;;;;;;5075876;28;20205;-66
2022/01/14 00:51:13;;;;;;;44.87;21.73;;;2.30;99.90;;;;;;5077214;28;20639;-66
2022/01/14 00:53:38;;;;;;;42.13;22.77;;;2.30;99.90;;;;;;5077286;28;20174;-65
2022/01/14 00:56:20;;;;;;;43.07;22.33;;;2.30;99.90;;;;;;5075772;28;20253;-66
2022/01/14 01:01:30;;;;;;;40.17;21.83;;;2.40;99.90;;;;;;5077480;28;20212;-66
2022/01/14 01:03:55;;;;;;;40.23;22.00;;;2.40;99.90;;;;;;5078775;28;20194;-66
2022/01/14 01:06:21;;;;;;;38.50;21.00;;;2.40;99.90;;;;;;5076790;28;20174;-67
2022/01/14 01:08:50;;;;;;;44.20;21.27;;;2.40;99.90;;;;;;5075468;28;20269;-66
2022/01/14 01:11:23;;;;;;;35.93;21.33;;;2.40;99.90;;;;;;5077035;28;20170;-67
2022/01/14 01:13:58;;;;;;;40.70;21.43;;;2.40;99.90;;;;;;5077036;28;20168;-66
2022/01/14 01:16:24;;;;;;;44.03;21.50;;;2.40;99.90;;;;;;5076909;28;20220;-66
2022/01/14 01:18:50;;;;;;;41.13;22.50;;;2.40;99.90;;;;;;5077333;28;20170;-67
2022/01/14 01:21:15;;;;;;;37.23;20.73;;;2.40;99.90;;;;;;5075888;28;20185;-67
2022/01/14 01:23:41;;;;;;;32.90;20.53;;;2.40;99.90;;;;;;5076052;28;20658;-70
2022/01/14 01:26:14;;;;;;;32.90;20.57;;;2.40;99.90;;;;;;5077352;28;20182;-67
2022/01/14 01:28:55;;;;;;;33.53;20.00;;;2.40;99.90;;;;;;5075261;28;20215;-67
2022/01/14 01:31:36;;;;;;;36.60;20.70;;;2.30;99.90;;;;;;5076466;28;20158;-67
2022/01/14 01:34:14;;;;;;;38.33;21.17;;;2.30;99.90;;;;;;5076591;28;20209;-67
2022/01/14 01:36:42;;;;;;;33.33;20.97;;;2.30;99.90;;;;;;5074885;28;20678;-67
2022/01/14 01:39:14;;;;;;;42.43;21.10;;;2.30;99.90;;;;;;5076451;28;20198;-67
2022/01/14 01:41:43;;;;;;;36.43;21.47;;;2.30;99.90;;;;;;5075594;28;20658;-67
2022/01/14 01:44:10;;;;;;;39.57;21.57;;;2.30;99.90;;;;;;5076088;28;20310;-67
2022/01/14 01:46:39;;;;;;;41.70;22.50;;;2.30;99.90;;;;;;5076178;28;20170;-67
2022/01/14 01:49:06;;;;;;;31.77;20.63;;;2.30;99.90;;;;;;5076115;28;20541;-67
2022/01/14 01:51:32;;;;;;;37.70;22.50;;;2.30;99.90;;;;;;5076236;28;20178;-67
2022/01/14 01:53:58;;;;;;;40.67;22.67;;;2.30;99.90;;;;;;5075929;28;20196;-67
2022/01/14 01:56:23;;;;;;;43.53;21.93;;;2.30;99.90;;;;;;5074565;28;20205;-67
2022/01/14 01:58:49;;;;;;;36.10;21.60;;;2.30;99.90;;;;;;5074637;28;20520;-68
2022/01/14 02:01:15;;;;;;;43.00;22.50;;;2.30;99.90;;;;;;5075898;28;20609;-67
2022/01/14 02:03:41;;;;;;;41.80;21.70;;;2.30;99.90;;;;;;5075866;28;20174;-67
2022/01/14 02:06:07;;;;;;;40.80;22.67;;;2.40;99.90;;;;;;5075806;28;20170;-68
2022/01/14 02:08:33;;;;;;;43.57;22.73;;;2.50;99.90;;;;;;5076459;28;20254;-68
2022/01/14 02:10:59;;;;;;;40.83;22.33;;;2.50;99.90;;;;;;5076572;28;20170;-67
2022/01/14 02:13:25;;;;;;;41.20;22.90;;;2.50;99.90;;;;;;5076040;28;20165;-68
2022/01/14 02:23:41;;;;;;;37.03;19.23;;;2.10;99.90;;;;;;5076020;28;20169;-67
2022/01/14 02:26:07;;;;;;;35.07;19.03;;;2.00;99.90;;;;;;5075385;28;20602;-68
2022/01/14 02:28:33;;;;;;;31.90;18.70;;;1.90;99.90;;;;;;5074048;28;20170;-68
2022/01/14 02:30:59;;;;;;;36.20;19.10;;;1.70;99.90;;;;;;5075406;28;20195;-68
2022/01/14 02:33:24;;;;;;;29.63;17.67;;;1.60;99.90;;;;;;5073943;28;20201;-68
2022/01/14 02:35:51;;;;;;;30.13;17.60;;;1.50;99.90;;;;;;5075213;28;20580;-67
2022/01/14 02:38:18;;;;;;;28.83;17.43;;;1.40;99.90;;;;;;5073732;28;20674;-67
2022/01/14 02:40:45;;;;;;;31.83;18.10;;;1.40;99.90;;;;;;5075288;28;20229;-68
2022/01/14 02:43:14;;;;;;;28.73;17.77;;;1.40;99.90;;;;;;5075014;28;20170;-67
2022/01/14 02:45:41;;;;;;;36.00;17.77;;;1.30;99.90;;;;;;5075234;28;20193;-68
2022/01/14 02:48:07;;;;;;;29.57;17.87;;;1.20;99.90;;;;;;5074907;28;20170;-68
2022/01/14 02:50:54;;;;;;;28.30;17.33;;;1.20;99.90;;;;;;5073513;28;20200;-67
2022/01/14 02:55:52;;;;;;;24.90;16.50;;;1.10;99.90;;;;;;5075390;28;20280;-67
2022/01/14 02:58:19;;;;;;;28.57;17.87;;;1.00;99.90;;;;;;5075138;28;20204;-67
2022/01/14 03:00:45;;;;;;;26.40;18.17;;;1.10;99.90;;;;;;5074800;28;20176;-67
2022/01/14 03:03:11;;;;;;;26.03;16.80;;;1.10;99.90;;;;;;5075059;28;20166;-67
2022/01/14 03:05:37;;;;;;;31.10;17.97;;;1.10;99.90;;;;;;5074629;28;20566;-67
2022/01/14 03:08:02;;;;;;;34.60;19.47;;;1.10;99.90;;;;;;5074936;28;20182;-68
2022/01/14 03:10:28;;;;;;;39.73;20.70;;;1.20;99.90;;;;;;5074962;28;20181;-67
2022/01/14 03:12:54;;;;;;;35.57;20.80;;;1.30;99.90;;;;;;5074493;28;20288;-67
2022/01/14 03:15:20;;;;;;;33.53;20.47;;;1.40;99.90;;;;;;5073045;28;20580;-67
2022/01/14 03:17:46;;;;;;;35.50;20.40;;;1.50;99.90;;;;;;5074383;28;20278;-67
2022/01/14 03:20:34;;;;;;;39.20;21.50;;;1.60;99.90;;;;;;5073140;28;20174;-67
2022/01/14 03:23:05;;;;;;;39.07;22.17;;;1.70;99.90;;;;;;5074162;28;20553;-67
2022/01/14 03:25:50;;;;;;;44.13;23.30;;;1.70;99.90;;;;;;5074269;28;20220;-67
2022/01/14 03:28:22;;;;;;;37.30;23.10;;;1.70;99.90;;;;;;5072888;28;20548;-67
2022/01/14 03:30:49;;;;;;;43.17;23.47;;;1.70;99.90;;;;;;5074482;28;20204;-68
2022/01/14 03:33:15;;;;;;;43.80;24.50;;;1.60;99.90;;;;;;5074015;28;20198;-67
2022/01/14 03:35:41;;;;;;;40.20;23.13;;;1.60;99.90;;;;;;5074045;28;20274;-67
2022/01/14 03:38:07;;;;;;;52.03;24.03;;;1.60;99.90;;;;;;5073985;28;20692;-67
2022/01/14 03:40:33;;;;;;;40.23;23.37;;;1.60;99.90;;;;;;5073914;28;20174;-67
2022/01/14 03:42:58;;;;;;;46.67;24.23;;;1.60;99.90;;;;;;5073967;28;20256;-67
2022/01/14 03:45:25;;;;;;;43.73;23.20;;;1.50;99.90;;;;;;5073861;28;20219;-67
2022/01/14 03:47:50;;;;;;;37.90;23.03;;;1.50;99.90;;;;;;5073862;28;20219;-67
2022/01/14 03:50:16;;;;;;;38.63;22.80;;;1.50;99.90;;;;;;5074551;28;20177;-68
2022/01/14 03:52:42;;;;;;;37.63;21.27;;;1.40;99.90;;;;;;5073840;28;20170;-67
2022/01/14 03:55:08;;;;;;;38.63;23.77;;;1.40;99.90;;;;;;5073693;28;20258;-68
2022/01/14 03:57:34;;;;;;;36.77;23.00;;;1.40;99.90;;;;;;5072203;28;20206;-67
2022/01/14 03:59:59;;;;;;;34.83;21.67;;;1.30;99.90;;;;;;5073566;28;20222;-67
2022/01/14 04:02:25;;;;;;;40.23;21.73;;;1.20;99.90;;;;;;5073621;28;20173;-67
2022/01/14 04:04:51;;;;;;;37.33;20.53;;;1.10;99.90;;;;;;5073246;28;20194;-67
2022/01/14 04:07:17;;;;;;;40.87;20.73;;;1.10;99.90;;;;;;5073608;28;20170;-67
2022/01/14 04:09:42;;;;;;;32.43;20.03;;;1.00;99.90;;;;;;5073806;28;20583;-68
2022/01/14 04:12:15;;;;;;;31.97;20.10;;;0.90;99.90;;;;;;5073434;28;20221;-67
2022/01/14 04:17:18;;;;;;;29.90;19.27;;;0.70;99.90;;;;;;5073582;28;20193;-64
2022/01/14 04:19:44;;;;;;;29.63;18.57;;;0.70;99.90;;;;;;5073746;28;20189;-64
2022/01/14 04:22:10;;;;;;;31.73;19.07;;;0.60;99.90;;;;;;5073751;28;20174;-64
2022/01/14 04:24:36;;;;;;;33.90;19.73;;;0.50;99.90;;;;;;5072104;28;20194;-65
2022/01/14 04:27:02;;;;;;;25.40;17.67;;;0.40;99.90;;;;;;5073237;28;20200;-65
2022/01/14 04:29:27;;;;;;;38.70;20.07;;;0.50;99.90;;;;;;5073931;28;20639;-64
2022/01/14 04:31:53;;;;;;;29.70;20.13;;;0.40;99.90;;;;;;5073652;28;20256;-65
2022/01/14 04:34:19;;;;;;;32.40;19.37;;;0.40;99.90;;;;;;5073721;28;20784;-64
2022/01/14 04:36:44;;;;;;;30.27;19.10;;;0.40;99.90;;;;;;5073504;28;20201;-65
2022/01/14 04:39:10;;;;;;;29.77;19.00;;;0.30;99.90;;;;;;5071964;28;20551;-64
2022/01/14 04:41:36;;;;;;;26.43;18.90;;;0.30;99.90;;;;;;5073211;28;20178;-65
2022/01/14 04:44:03;;;;;;;29.97;19.73;;;0.30;99.90;;;;;;5073129;28;20198;-67
2022/01/14 04:49:07;;;;;;;28.90;17.90;;;0.20;99.90;;;;;;5073239;28;20157;-65
2022/01/14 04:51:33;;;;;;;28.80;17.43;;;0.10;99.90;;;;;;5073219;28;20170;-65
2022/01/14 04:53:59;;;;;;;30.17;20.03;;;0.10;99.90;;;;;;5073161;28;20276;-65
2022/01/14 04:56:25;;;;;;;28.30;17.63;;;0.10;99.90;;;;;;5072918;28;20190;-64
2022/01/14 04:58:50;;;;;;;29.37;17.90;;;0.10;99.90;;;;;;5072984;28;20166;-64
2022/01/14 05:01:16;;;;;;;29.93;18.03;;;0.10;99.90;;;;;;5073304;28;20646;-64
2022/01/14 05:03:42;;;;;;;34.63;19.13;;;0.10;99.90;;;;;;5073433;28;20245;-64
2022/01/14 05:06:08;;;;;;;30.03;18.43;;;0.10;99.90;;;;;;5071737;28;20219;-65
2022/01/14 05:08:39;;;;;;;28.63;18.20;;;0.00;99.90;;;;;;5071638;28;20547;-63
2022/01/14 05:13:43;;;;;;;24.83;17.47;;;0.00;99.90;;;;;;5073499;28;20204;-65
2022/01/14 05:16:09;;;;;;;28.93;19.33;;;0.10;99.90;;;;;;5073848;28;20170;-65
2022/01/14 05:18:37;;;;;;;34.67;20.57;;;0.10;99.90;;;;;;5077272;28;20172;-64
2022/01/14 05:21:06;;;;;;;37.33;20.70;;;0.20;99.90;;;;;;5077229;28;20166;-64
2022/01/14 05:23:32;;;;;;;42.60;21.70;;;0.30;99.90;;;;;;5077330;28;20169;-64
2022/01/14 05:25:58;;;;;;;39.70;23.17;;;0.50;99.90;;;;;;5076613;28;20206;-64
2022/01/14 05:28:24;;;;;;;40.97;23.93;;;0.60;99.90;;;;;;5075416;28;20650;-64
2022/01/14 05:30:50;;;;;;;39.83;22.97;;;0.70;99.90;;;;;;5076977;28;20586;-64
2022/01/14 05:33:16;;;;;;;42.83;23.87;;;0.70;99.90;;;;;;5076999;28;20176;-64
2022/01/14 05:35:42;;;;;;;43.53;23.47;;;0.70;99.90;;;;;;5076210;28;20560;-64
2022/01/14 05:38:08;;;;;;;33.23;22.50;;;0.80;99.90;;;;;;5076500;28;20558;-64
2022/01/14 05:40:34;;;;;;;37.13;22.83;;;0.80;99.90;;;;;;5076267;28;20252;-64
2022/01/14 05:43:00;;;;;;;41.47;23.50;;;0.70;99.90;;;;;;5076192;28;20178;-64
2022/01/14 05:45:27;;;;;;;42.57;22.73;;;0.60;99.90;;;;;;5076186;28;20190;-65
2022/01/14 05:47:53;;;;;;;32.00;20.23;;;0.50;99.90;;;;;;5074852;28;20182;-65
2022/01/14 05:50:21;;;;;;;32.07;19.23;;;0.40;99.90;;;;;;5074874;28;20181;-64
2022/01/14 05:52:47;;;;;;;28.37;19.13;;;0.20;99.90;;;;;;5074958;28;20261;-65
2022/01/14 05:55:16;;;;;;;29.33;18.27;;;0.00;99.90;;;;;;5074668;28;20194;-65
2022/01/14 05:57:42;;;;;;;28.13;18.37;;;-0.10;99.90;;;;;;5076135;28;20272;-64
2022/01/14 06:00:13;;;;;;;31.27;18.70;;;-0.20;99.90;;;;;;5075955;28;20643;-64
2022/01/14 06:02:38;;;;;;;27.30;18.17;;;-0.30;99.90;;;;;;5076370;28;20159;-64
2022/01/14 06:05:04;;;;;;;33.20;19.03;;;-0.20;99.90;;;;;;5075810;28;20554;-64
2022/01/14 06:07:30;;;;;;;28.43;18.30;;;-0.30;99.90;;;;;;5074404;28;20181;-67
2022/01/14 06:09:56;;;;;;;26.30;17.87;;;-0.30;99.90;;;;;;5075740;28;20639;-67
2022/01/14 06:12:22;;;;;;;27.53;18.63;;;-0.20;99.90;;;;;;5075821;28;20182;-67
2022/01/14 06:14:47;;;;;;;32.67;19.23;;;-0.20;99.90;;;;;;5075436;28;20193;-67
2022/01/14 06:17:13;;;;;;;28.80;18.77;;;-0.20;99.90;;;;;;5074073;28;20194;-67
2022/01/14 06:19:39;;;;;;;30.13;18.13;;;-0.20;99.90;;;;;;5075678;28;20626;-67
2022/01/14 06:22:05;;;;;;;30.03;19.03;;;-0.30;99.90;;;;;;5075546;28;20170;-64
2022/01/14 06:24:30;;;;;;;32.37;19.73;;;-0.30;99.90;;;;;;5073914;28;20204;-64
2022/01/14 06:26:56;;;;;;;31.33;19.07;;;-0.40;99.90;;;;;;5075012;28;20540;-63
2022/01/14 06:29:22;;;;;;;29.33;18.23;;;-0.40;99.90;;;;;;5075192;28;20169;-64
2022/01/14 06:31:48;;;;;;;28.37;18.57;;;-0.40;99.90;;;;;;5074186;28;20579;-64
2022/01/14 06:34:14;;;;;;;31.47;19.23;;;-0.40;99.90;;;;;;5075294;28;20201;-64
2022/01/14 06:36:41;;;;;;;28.63;18.63;;;-0.40;99.90;;;;;;5074921;28;20198;-64
2022/01/14 06:39:08;;;;;;;25.60;17.40;;;-0.50;99.90;;;;;;5073945;28;20170;-63
2022/01/14 06:41:34;;;;;;;38.30;20.83;;;-0.50;99.90;;;;;;5073740;28;20169;-64
2022/01/14 06:43:59;;;;;;;30.17;19.33;;;-0.50;99.90;;;;;;5075148;28;20715;-64
2022/01/14 06:46:25;;;;;;;31.43;19.87;;;-0.50;99.90;;;;;;5074743;28;20179;-65
2022/01/14 06:48:51;;;;;;;31.70;20.13;;;-0.50;99.90;;;;;;5075262;28;20166;-63
2022/01/14 06:51:17;;;;;;;33.53;19.87;;;-0.60;99.90;;;;;;5074727;28;20162;-64
2022/01/14 06:53:42;;;;;;;31.23;20.67;;;-0.50;99.90;;;;;;5074844;28;20154;-63
2022/01/14 06:56:14;;;;;;;35.13;20.77;;;-0.60;99.90;;;;;;5075026;28;20177;-64
2022/01/14 06:58:40;;;;;;;37.00;21.37;;;-0.60;99.90;;;;;;5074583;28;20234;-64
2022/01/14 07:01:07;;;;;;;51.07;22.73;;;-0.60;99.90;;;;;;5074778;28;20530;-64
2022/01/14 07:03:32;;;;;;;50.13;21.73;;;-0.60;99.90;;;;;;5074695;28;20174;-63
2022/01/14 07:05:58;;;;;;;47.00;22.20;;;-0.60;99.90;;;;;;5073056;28;20221;-65
2022/01/14 07:08:24;;;;;;;34.83;20.80;;;-0.70;99.90;;;;;;5074553;28;20171;-63
2022/01/14 07:10:49;;;;;;;45.13;20.17;;;-0.70;99.90;;;;;;5074835;28;20197;-63
2022/01/14 07:13:15;;;;;;;34.03;19.33;;;-0.70;99.90;;;;;;5072987;28;20538;-63
2022/01/14 07:15:41;;;;;;;46.27;18.73;;;-0.70;99.90;;;;;;5074159;28;20568;-63
2022/01/14 07:18:07;;;;;;;41.97;18.27;;;-0.70;99.90;;;;;;5074078;28;20197;-63
2022/01/14 07:20:32;;;;;;;38.10;19.07;;;-0.90;99.90;;;;;;5074390;28;20158;-63
2022/01/14 07:22:58;;;;;;;33.43;19.83;;;-0.90;99.90;;;;;;5073940;28;20706;-64
2022/01/14 07:25:24;;;;;;;30.40;18.67;;;-0.90;99.90;;;;;;5074552;28;20677;-64
2022/01/14 07:27:50;;;;;;;35.23;19.47;;;-0.90;99.90;;;;;;5074260;28;20237;-64
2022/01/14 07:30:16;;;;;;;33.10;18.80;;;-0.90;99.90;;;;;;5074065;28;20223;-64
2022/01/14 07:32:43;;;;;;;33.47;19.90;;;-0.90;99.90;;;;;;5074043;28;20166;-63
2022/01/14 07:35:10;;;;;;;28.17;19.53;;;-0.80;99.90;;;;;;5072878;28;20207;-64
2022/01/14 07:37:36;;;;;;;27.80;19.07;;;-0.70;99.90;;;;;;5074439;28;20189;-64
2022/01/14 07:40:03;;;;;;;35.83;22.17;;;-0.70;99.90;;;;;;5073408;28;20166;-64
2022/01/14 07:42:29;;;;;;;47.37;26.57;;;-0.70;99.90;;;;;;5074151;28;20272;-64
2022/01/14 07:44:55;;;;;;;35.03;23.67;;;-0.70;99.90;;;;;;5073764;28;20182;-64
2022/01/14 07:47:20;;;;;;;33.83;22.90;;;-0.80;99.90;;;;;;5073718;28;20708;-64
2022/01/14 07:49:47;;;;;;;34.13;23.10;;;-0.80;99.90;;;;;;5073608;28;20237;-64
2022/01/14 07:52:12;;;;;;;40.87;23.30;;;-0.80;99.90;;;;;;5073849;28;20189;-64
2022/01/14 07:54:38;;;;;;;29.27;20.73;;;-0.70;99.90;;;;;;5073514;28;20344;-64
2022/01/14 07:57:07;;;;;;;28.40;20.13;;;-0.80;99.90;;;;;;5073538;28;20197;-64
2022/01/14 07:59:34;;;;;;;33.43;18.87;;;-0.80;99.90;;;;;;5073525;28;20677;-64
2022/01/14 08:02:00;;;;;;;27.60;19.97;;;-0.80;99.90;;;;;;5072239;28;20182;-64
2022/01/14 08:04:27;;;;;;;29.90;20.23;;;-0.90;99.90;;;;;;5073460;28;20255;-63
2022/01/14 08:06:56;;;;;;;23.20;18.90;;;-1.00;99.90;;;;;;5072241;28;20170;-64
2022/01/14 08:09:23;;;;;;;25.73;18.53;;;-1.00;99.90;;;;;;5073413;28;20615;-64
2022/01/14 08:11:49;;;;;;;28.40;20.10;;;-1.00;99.90;;;;;;5073435;28;20162;-63
2022/01/14 08:14:15;;;;;;;28.73;20.10;;;-1.00;99.90;;;;;;5074775;28;20655;-63
2022/01/14 08:16:41;;;;;;;28.93;19.63;;;-0.90;99.90;;;;;;5075439;28;20218;-63
2022/01/14 08:19:07;;;;;;;25.97;19.23;;;-0.90;99.90;;;;;;5076864;28;20180;-64
2022/01/14 08:21:34;;;;;;;27.60;18.90;;;-0.80;99.90;;;;;;5074128;28;20204;-65
2022/01/14 08:24:00;;;;;;;27.10;19.43;;;-0.70;99.90;;;;;;5071994;28;20297;-65
2022/01/14 08:26:32;;;;;;;27.77;19.53;;;-0.70;99.90;;;;;;5071959;28;20221;-65
2022/01/14 08:29:01;;;;;;;26.67;19.47;;;-0.70;99.90;;;;;;5073974;28;20211;-64
2022/01/14 08:31:27;;;;;;;31.20;20.10;;;-0.60;99.90;;;;;;5074138;28;20260;-63
2022/01/14 08:33:53;;;;;;;29.50;20.17;;;-0.60;99.90;;;;;;5073074;28;20197;-64
2022/01/14 08:36:19;;;;;;;30.23;20.93;;;-0.60;99.90;;;;;;5071776;28;20228;-64
2022/01/14 08:38:44;;;;;;;28.40;19.37;;;-0.60;99.90;;;;;;5073322;28;20181;-67
2022/01/14 08:41:10;;;;;;;29.33;18.87;;;-0.60;99.90;;;;;;5073508;28;20166;-64
2022/01/14 08:43:36;;;;;;;24.97;17.87;;;-0.50;99.90;;;;;;5072994;28;20174;-64
2022/01/14 08:46:02;;;;;;;26.70;19.20;;;-0.50;99.90;;;;;;5073210;28;20185;-64
2022/01/14 08:48:30;;;;;;;30.10;20.13;;;-0.40;99.90;;;;;;5071714;28;20177;-65
2022/01/14 08:50:57;;;;;;;26.60;20.10;;;-0.40;99.90;;;;;;5073886;28;20155;-67
2022/01/14 08:53:22;;;;;;;34.57;21.73;;;-0.30;99.90;;;;;;5077283;28;20201;-67
2022/01/14 08:55:48;;;;;;;41.33;24.63;;;-0.10;99.90;;;;;;5077199;28;20255;-66
2022/01/14 08:58:14;;;;;;;40.90;24.13;;;0.20;99.90;;;;;;5075442;28;20205;-66
2022/01/14 09:00:40;;;;;;;42.97;26.20;;;0.40;99.90;;;;;;5076794;28;20204;-66
2022/01/14 09:03:06;;;;;;;43.77;27.50;;;0.60;99.90;;;;;;5076792;28;20219;-66
2022/01/14 09:05:33;;;;;;;45.83;26.80;;;0.70;99.90;;;;;;5075500;28;20292;-65
2022/01/14 09:08:00;;;;;;;49.43;27.87;;;0.90;99.90;;;;;;5076758;28;20655;-65
2022/01/14 09:10:26;;;;;;;56.77;29.03;;;0.80;99.90;;;;;;5075457;28;20205;-65
2022/01/14 09:12:52;;;;;;;63.10;31.53;;;0.80;99.90;;;;;;5075391;28;20166;-65
2022/01/14 09:15:18;;;;;;;62.17;31.47;;;0.80;99.90;;;;;;5076514;28;20198;-65
2022/01/14 09:17:44;;;;;;;62.80;29.87;;;0.80;99.90;;;;;;5075118;28;20231;-65
2022/01/14 09:20:11;;;;;;;67.27;33.20;;;0.80;99.90;;;;;;5076762;28;20174;-65
2022/01/14 09:22:37;;;;;;;61.07;30.47;;;0.80;99.90;;;;;;5076973;28;20174;-65
2022/01/14 09:25:07;;;;;;;51.80;30.27;;;0.80;99.90;;;;;;5076499;28;20193;-65
2022/01/14 09:27:33;;;;;;;55.10;32.87;;;0.90;99.90;;;;;;5076855;28;20554;-67
2022/01/14 09:30:04;;;;;;;59.13;32.00;;;0.90;99.90;;;;;;5076524;28;20529;-67
2022/01/14 09:32:31;;;;;;;70.50;34.37;;;0.90;99.90;;;;;;5076522;28;20658;-67
2022/01/14 09:34:57;;;;;;;64.80;33.10;;;0.90;99.90;;;;;;5075053;28;20202;-64
2022/01/14 09:37:22;;;;;;;60.73;30.10;;;0.90;99.90;;;;;;5074924;28;20716;-64
2022/01/14 09:39:48;;;;;;;71.73;35.50;;;1.00;99.90;;;;;;5076169;28;20257;-64
2022/01/14 09:42:14;;;;;;;65.97;32.43;;;1.00;99.90;;;;;;5074879;28;20176;-64
2022/01/14 09:44:42;;;;;;;65.73;31.77;;;1.00;99.90;;;;;;5075989;28;20190;-64
2022/01/14 09:47:08;;;;;;;80.67;35.23;;;1.00;99.90;;;;;;5076004;28;20247;-64
2022/01/14 09:49:34;;;;;;;77.67;34.27;;;1.00;99.90;;;;;;5074655;28;20182;-64
2022/01/14 09:52:00;;;;;;;76.47;36.30;;;1.00;99.90;;;;;;5076000;28;20177;-64
2022/01/14 09:54:26;;;;;;;81.27;35.73;;;1.00;99.90;;;;;;5076159;28;20545;-64
2022/01/14 09:56:51;;;;;;;80.50;36.00;;;1.00;99.90;;;;;;5076008;28;20190;-64
2022/01/14 09:59:18;;;;;;;70.63;33.27;;;1.00;99.90;;;;;;5076065;28;20184;-64
2022/01/14 10:01:46;;;;;;;75.47;35.70;;;1.10;99.90;;;;;;5075173;28;20170;-64
2022/01/14 10:04:19;;;;;;;61.27;31.10;;;1.10;99.90;;;;;;5075569;28;20279;-64
2022/01/14 10:06:55;;;;;;;74.07;35.43;;;1.10;99.90;;;;;;5076235;28;20203;-64
2022/01/14 10:09:24;;;;;;;72.20;33.77;;;1.20;99.90;;;;;;5075617;28;20154;-64
2022/01/14 10:12:15;;;;;;;95.10;36.37;;;1.20;99.90;;;;;;5075725;28;20197;-64
2022/01/14 10:14:43;;;;;;;108.53;34.97;;;1.20;99.90;;;;;;5075794;28;20185;-66
2022/01/14 10:17:11;;;;;;;99.90;35.70;;;1.20;99.90;;;;;;5075651;28;20196;-67
2022/01/14 10:19:45;;;;;;;88.70;35.63;;;1.20;99.90;;;;;;5074136;28;20178;-67
2022/01/14 10:22:28;;;;;;;88.73;34.87;;;1.20;99.90;;;;;;5075663;28;20158;-67
2022/01/14 10:24:58;;;;;;;85.17;37.33;;;1.30;99.90;;;;;;5074017;28;20193;-67
2022/01/14 10:27:36;;;;;;;98.20;35.90;;;1.30;99.90;;;;;;5075401;28;20259;-67
2022/01/14 10:30:29;;;;;;;107.10;39.23;;;1.30;99.90;;;;;;5075249;28;20178;-67
2022/01/14 10:33:04;;;;;;;87.23;35.83;;;1.30;99.90;;;;;;5075751;28;20154;-67
2022/01/14 10:35:41;;;;;;;102.20;39.93;;;1.40;99.90;;;;;;5075184;28;20204;-67
2022/01/14 10:38:09;;;;;;;100.80;38.40;;;1.40;99.90;;;;;;5075652;28;20254;-65
2022/01/14 10:40:41;;;;;;;87.17;36.10;;;1.40;99.90;;;;;;5073678;28;20255;-66
2022/01/14 10:43:12;;;;;;;104.27;37.73;;;1.40;99.90;;;;;;5075058;28;20158;-64
2022/01/14 10:45:38;;;;;;;88.93;37.50;;;1.50;99.90;;;;;;5074848;28;20235;-64
2022/01/14 10:48:07;;;;;;;96.00;36.53;;;1.50;99.90;;;;;;5073501;28;20235;-64
2022/01/14 10:50:43;;;;;;;81.73;34.20;;;1.60;99.90;;;;;;5073517;28;20650;-64
2022/01/14 10:53:18;;;;;;;80.87;34.47;;;1.60;99.90;;;;;;5073837;28;20668;-64
2022/01/14 10:55:48;;;;;;;91.67;34.93;;;1.70;99.90;;;;;;5075278;28;20242;-64
2022/01/14 10:58:26;;;;;;;82.87;34.63;;;1.70;99.90;;;;;;5074837;28;20201;-64
2022/01/14 11:01:00;;;;;;;104.23;36.53;;;1.80;99.90;;;;;;5075254;28;20154;-64
2022/01/14 11:03:38;;;;;;;90.20;36.97;;;1.80;99.90;;;;;;5075188;28;20642;-64
2022/01/14 11:06:28;;;;;;;70.37;34.10;;;1.90;99.90;;;;;;5074442;28;20189;-65
2022/01/14 11:09:18;;;;;;;89.80;36.23;;;1.90;99.90;;;;;;5074787;28;20162;-64
2022/01/14 11:11:49;;;;;;;82.03;34.43;;;1.90;99.90;;;;;;5075485;28;20507;-64
2022/01/14 11:14:16;;;;;;;84.80;35.47;;;2.00;99.90;;;;;;5073791;28;20601;-64
2022/01/14 11:16:42;;;;;;;78.57;34.87;;;2.00;99.90;;;;;;5074440;28;20189;-64
2022/01/14 11:19:09;;;;;;;78.87;32.63;;;2.10;99.90;;;;;;5074258;28;20170;-64
2022/01/14 11:24:24;;;;;;;81.57;34.13;;;2.20;99.90;;;;;;5074180;28;20205;-65
2022/01/14 11:26:52;;;;;;;90.13;36.63;;;2.20;99.90;;;;;;5072803;28;20547;-64
2022/01/14 11:29:21;;;;;;;85.10;36.03;;;2.20;99.90;;;;;;5074069;28;20208;-64
2022/01/14 11:31:56;;;;;;;86.87;34.77;;;2.20;99.90;;;;;;5073991;28;20173;-64
2022/01/14 11:34:37;;;;;;;86.87;34.60;;;2.20;99.90;;;;;;5074243;28;20211;-65
2022/01/14 11:37:06;;;;;;;85.50;34.53;;;2.20;99.90;;;;;;5074171;28;20186;-64
2022/01/14 11:39:36;;;;;;;80.20;35.30;;;2.20;99.90;;;;;;5074148;28;20166;-65
2022/01/14 11:42:14;;;;;;;77.33;34.10;;;2.20;99.90;;;;;;5073866;28;20256;-65
2022/01/14 11:44:52;;;;;;;73.67;32.10;;;2.30;99.90;;;;;;5072506;28;20239;-65
2022/01/14 11:47:24;;;;;;;82.50;32.27;;;2.30;99.90;;;;;;5072557;28;20166;-65
2022/01/14 11:49:51;;;;;;;79.37;34.17;;;2.40;99.90;;;;;;5073676;28;20174;-64
2022/01/14 11:52:32;;;;;;;86.37;32.53;;;2.40;99.90;;;;;;5073641;28;20253;-64
2022/01/14 11:54:58;;;;;;;71.20;32.93;;;2.40;99.90;;;;;;5073619;28;20190;-64
2022/01/14 11:57:45;;;;;;;81.57;37.07;;;2.50;99.90;;;;;;5073719;28;20271;-64
2022/01/14 12:00:41;;;;;;;67.83;31.47;;;2.50;99.90;;;;;;5073534;28;20664;-65
2022/01/14 12:03:07;;;;;;;69.87;30.97;;;2.50;99.90;;;;;;5073472;28;20193;-64
2022/01/14 12:05:37;;;;;;;69.93;32.07;;;2.50;99.90;;;;;;5073461;28;20591;-64
2022/01/14 12:08:03;;;;;;;73.37;32.43;;;2.50;99.90;;;;;;5074198;28;20192;-64
2022/01/14 12:10:38;;;;;;;78.93;34.47;;;2.60;99.90;;;;;;5073514;28;20192;-64
2022/01/14 12:13:37;;;;;;;68.70;30.07;;;2.60;99.90;;;;;;5073541;28;20168;-64
2022/01/14 12:16:47;;;;;;;72.73;28.77;;;2.60;99.90;;;;;;5073744;28;20185;-64
2022/01/14 12:19:08;;;;;;;66.10;30.17;;;2.60;99.90;;;;;;5072941;28;20201;-65
2022/01/14 12:21:50;;;;;;;81.30;31.70;;;2.60;99.90;;;;;;5073263;28;20654;-64
2022/01/14 12:24:18;;;;;;;63.67;29.63;;;2.60;99.90;;;;;;5071805;28;20204;-64
2022/01/14 12:27:11;;;;;;;75.60;31.87;;;2.60;99.90;;;;;;5072996;28;20190;-64
2022/01/14 12:29:45;;;;;;;63.93;30.90;;;2.60;99.90;;;;;;5073442;28;20579;-64
2022/01/14 12:32:29;;;;;;;76.73;34.80;;;2.60;99.90;;;;;;5073180;28;20300;-64
2022/01/14 12:34:54;;;;;;;91.33;36.57;;;2.60;99.90;;;;;;5073117;28;20722;-64
2022/01/14 12:37:30;;;;;;;94.67;36.23;;;2.60;99.90;;;;;;5071625;28;20197;-64
2022/01/14 12:40:01;;;;;;;79.23;34.27;;;2.60;99.90;;;;;;5073154;28;20161;-64
2022/01/14 12:42:27;;;;;;;72.77;33.60;;;2.60;99.90;;;;;;5073356;28;20169;-64
2022/01/14 12:44:54;;;;;;;82.37;35.00;;;2.70;99.90;;;;;;5073206;28;20190;-64
2022/01/14 12:47:25;;;;;;;76.07;32.63;;;2.70;99.90;;;;;;5073054;28;20177;-64
2022/01/14 12:49:53;;;;;;;76.70;36.17;;;2.70;99.90;;;;;;5073013;28;20178;-64
2022/01/14 12:52:37;;;;;;;83.23;36.07;;;2.70;99.90;;;;;;5073439;28;20174;-64
2022/01/14 12:55:05;;;;;;;78.83;36.13;;;2.70;99.90;;;;;;5073463;28;20185;-64
2022/01/14 12:57:31;;;;;;;87.90;37.13;;;2.70;99.90;;;;;;5073420;28;20190;-64
2022/01/14 12:59:57;;;;;;;79.80;39.87;;;2.70;99.90;;;;;;5072798;28;20247;-64
2022/01/14 13:02:30;;;;;;;84.33;36.47;;;2.70;99.90;;;;;;5072844;28;20352;-64
2022/01/14 13:05:14;;;;;;;84.20;34.37;;;2.70;99.90;;;;;;5072818;28;20693;-64
2022/01/14 13:07:40;;;;;;;80.63;35.23;;;2.80;99.90;;;;;;5072731;28;20162;-64
2022/01/14 13:10:08;;;;;;;82.10;35.57;;;2.80;99.90;;;;;;5072904;28;20169;-64
2022/01/14 13:12:39;;;;;;;74.77;33.07;;;2.80;99.90;;;;;;5073202;28;20181;-64
2022/01/14 13:15:07;;;;;;;77.90;33.33;;;2.80;99.90;;;;;;5072956;28;20198;-64